KWAL/WAL METAR and TAF weather

Enter ICAO airport designator
Station Type Date Time Source
KWAL METAR 2022/05/26 05:54 UTC NOAA

KWAL 260554Z AUTO 07010KT 10SM OVC020 16/13 A3027 RMK AO2 SLP247 T01610128 10161 20156 58013


Station Type Date Time Source
KWAL Decoded METAR 2022/05/26 05:54 UTC NOAA

WALLOPS FLIGHT FAC AIRPORT , VA, United States (KWAL) 37-56N 075-28W 14M
May 26, 2022 - 01:54 AM EDT / 2022.05.26 0554 UTC
Wind: from the ENE (070 degrees) at 12 MPH (10 KT):0
Visibility: 10 mile(s):0
Sky conditions: overcast
Temperature: 61.0 F (16.1 C)
Dew Point: 55.0 F (12.8 C)
Relative Humidity: 80%
Pressure (altimeter): 30.27 in. Hg (1025 hPa)
Pressure tendency: 0.04 inches (1.3 hPa) lower than three hours ago
ob: KWAL 260554Z AUTO 07010KT 10SM OVC020 16/13 A3027 RMK AO2 SLP247 T01610128 10161 20156 58013
cycle: 6

Station Type Date Time Source
KWAL TAF UTC NOAA

Error!

Example: see airport list